createdAt,value
2019-01-13T00:00:55.192Z,999.29
2019-01-13T00:01:59.278Z,999.32
2019-01-13T00:03:03.574Z,999.33
2019-01-13T00:04:07.817Z,999.34
2019-01-13T00:05:11.992Z,999.31
2019-01-13T00:06:16.201Z,999.31
2019-01-13T00:07:20.404Z,999.32
2019-01-13T00:08:24.519Z,999.33
2019-01-13T00:09:28.750Z,999.34
2019-01-13T00:10:32.861Z,999.33
2019-01-13T00:11:37.149Z,999.32
2019-01-13T00:12:41.419Z,999.34
2019-01-13T00:13:45.612Z,999.31
2019-01-13T00:14:49.873Z,999.31
2019-01-13T00:15:54.154Z,999.29
2019-01-13T00:16:58.416Z,999.33
2019-01-13T00:18:02.500Z,999.34
2019-01-13T00:19:06.657Z,999.33
2019-01-13T00:20:10.927Z,999.32
2019-01-13T00:21:15.137Z,999.36
2019-01-13T00:22:19.378Z,999.31
2019-01-13T00:23:23.614Z,999.33
2019-01-13T00:24:27.848Z,999.34
2019-01-13T00:25:32.085Z,999.34
2019-01-13T00:26:36.342Z,999.36
2019-01-13T00:27:40.430Z,999.37
2019-01-13T00:28:44.812Z,999.39
2019-01-13T00:29:49.022Z,999.40
2019-01-13T00:30:53.205Z,999.37
2019-01-13T00:31:57.502Z,999.41
2019-01-13T00:33:01.738Z,999.38
2019-01-13T00:34:05.966Z,999.39
2019-01-13T00:35:10.207Z,999.40
2019-01-13T00:36:14.401Z,999.39
2019-01-13T00:37:18.558Z,999.43
2019-01-13T00:38:22.716Z,999.40
2019-01-13T00:39:26.978Z,999.38
2019-01-13T00:40:31.200Z,999.40
2019-01-13T00:41:35.431Z,999.39
2019-01-13T00:42:39.533Z,999.38
2019-01-13T00:43:43.854Z,999.43
2019-01-13T00:44:48.034Z,999.42
2019-01-13T00:45:52.279Z,999.45
2019-01-13T00:46:56.480Z,999.46
2019-01-13T00:48:00.610Z,999.47
2019-01-13T00:49:04.915Z,999.46
2019-01-13T00:50:09.174Z,999.46
2019-01-13T00:51:13.408Z,999.46
2019-01-13T00:52:17.701Z,999.45
2019-01-13T00:53:21.939Z,999.46
2019-01-13T00:54:26.074Z,999.45
2019-01-13T00:55:30.421Z,999.40
2019-01-13T00:56:34.621Z,999.42
2019-01-13T00:57:38.851Z,999.42
2019-01-13T00:58:43.076Z,999.42
2019-01-13T00:59:47.318Z,999.38
2019-01-13T01:00:51.503Z,999.38
2019-01-13T01:01:55.637Z,999.35
2019-01-13T01:02:59.889Z,999.36
2019-01-13T01:04:04.164Z,999.37
2019-01-13T01:05:08.362Z,999.39
2019-01-13T01:06:12.490Z,999.38
2019-01-13T01:07:16.751Z,999.37
2019-01-13T01:08:20.967Z,999.39
2019-01-13T01:09:25.123Z,999.40
2019-01-13T01:10:29.394Z,999.41
2019-01-13T01:11:33.457Z,999.41
2019-01-13T01:12:37.699Z,999.41
2019-01-13T01:13:41.941Z,999.42
2019-01-13T01:14:46.181Z,999.42
2019-01-13T01:15:50.219Z,999.43
2019-01-13T01:16:54.536Z,999.49
2019-01-13T01:17:58.748Z,999.51
2019-01-13T01:19:02.966Z,999.48
2019-01-13T01:20:07.186Z,999.49
2019-01-13T01:21:11.327Z,999.46
2019-01-13T01:22:15.581Z,999.44
2019-01-13T01:23:19.801Z,999.47
2019-01-13T01:24:23.990Z,999.45
2019-01-13T01:25:28.233Z,999.47
2019-01-13T01:26:32.468Z,999.44
2019-01-13T01:27:36.678Z,999.45
2019-01-13T01:28:40.889Z,999.42
2019-01-13T01:29:45.103Z,999.40
2019-01-13T01:30:49.314Z,999.38
2019-01-13T01:31:53.523Z,999.38
2019-01-13T01:32:57.730Z,999.38
2019-01-13T01:34:01.939Z,999.35
2019-01-13T01:35:06.165Z,999.38
2019-01-13T01:36:10.350Z,999.38
2019-01-13T01:37:14.583Z,999.37
2019-01-13T01:38:18.772Z,999.37
2019-01-13T01:39:22.893Z,999.37
2019-01-13T01:40:27.138Z,999.35
2019-01-13T01:41:31.379Z,999.38
2019-01-13T01:42:35.580Z,999.36
2019-01-13T01:43:39.783Z,999.34
2019-01-13T01:44:44.021Z,999.35
2019-01-13T01:45:48.217Z,999.37
2019-01-13T01:46:52.400Z,999.39
2019-01-13T01:47:56.615Z,999.38
2019-01-13T01:49:00.798Z,999.39
2019-01-13T01:50:05.053Z,999.40
2019-01-13T01:51:09.268Z,999.39
2019-01-13T01:52:13.505Z,999.36
2019-01-13T01:53:17.760Z,999.35
2019-01-13T01:54:21.992Z,999.41
2019-01-13T01:55:26.219Z,999.39
2019-01-13T01:56:30.430Z,999.39
2019-01-13T01:57:34.572Z,999.40
2019-01-13T01:58:38.837Z,999.42
2019-01-13T01:59:43.072Z,999.39
2019-01-13T02:00:47.312Z,999.36
2019-01-13T02:01:51.546Z,999.36
2019-01-13T02:02:55.679Z,999.36
2019-01-13T02:03:59.851Z,999.33
2019-01-13T02:05:04.119Z,999.34
2019-01-13T02:06:08.272Z,999.31
2019-01-13T02:07:12.607Z,999.35
2019-01-13T02:08:16.753Z,999.34
2019-01-13T02:09:20.867Z,999.33
2019-01-13T02:10:25.081Z,999.29
2019-01-13T02:11:29.361Z,999.29
2019-01-13T02:12:33.562Z,999.33
2019-01-13T02:13:37.775Z,999.30
2019-01-13T02:14:41.914Z,999.27
2019-01-13T02:15:46.207Z,999.25
2019-01-13T02:16:50.412Z,999.27
2019-01-13T02:17:54.593Z,999.26
2019-01-13T02:18:58.792Z,999.24
2019-01-13T02:20:02.955Z,999.27
2019-01-13T02:21:07.167Z,999.29
2019-01-13T02:22:11.391Z,999.25
2019-01-13T02:23:15.587Z,999.26
2019-01-13T02:24:19.720Z,999.25
2019-01-13T02:25:23.997Z,999.26
2019-01-13T02:26:28.245Z,999.27
2019-01-13T02:27:32.402Z,999.27
2019-01-13T02:28:36.582Z,999.27
2019-01-13T02:29:40.803Z,999.27
2019-01-13T02:30:49.250Z,999.27
2019-01-13T02:31:49.299Z,999.23
2019-01-13T02:32:53.511Z,999.28
2019-01-13T02:33:57.735Z,999.26
2019-01-13T02:35:01.851Z,999.25
2019-01-13T02:36:06.115Z,999.26
2019-01-13T02:37:10.224Z,999.27
2019-01-13T02:38:14.500Z,999.27
2019-01-13T02:39:21.765Z,999.23
2019-01-13T02:40:25.059Z,999.30
2019-01-13T02:41:29.290Z,999.32
2019-01-13T02:42:33.516Z,999.34
2019-01-13T02:43:37.707Z,999.35
2019-01-13T02:44:41.925Z,999.34
2019-01-13T02:45:46.181Z,999.31
2019-01-13T02:46:50.276Z,999.30
2019-01-13T02:47:54.448Z,999.23
2019-01-13T02:48:58.712Z,999.25
2019-01-13T02:50:02.941Z,999.19
2019-01-13T02:51:07.052Z,999.20
2019-01-13T02:52:11.311Z,999.24
2019-01-13T02:53:15.455Z,999.22
2019-01-13T02:54:19.724Z,999.22
2019-01-13T02:55:23.872Z,999.23
2019-01-13T02:56:28.139Z,999.22
2019-01-13T02:57:32.370Z,999.22
2019-01-13T02:58:36.580Z,999.21
2019-01-13T02:59:40.783Z,999.15
2019-01-13T03:00:44.982Z,999.16
2019-01-13T03:01:49.240Z,999.14
2019-01-13T03:02:53.418Z,999.15
2019-01-13T03:03:57.629Z,999.17
2019-01-13T03:05:01.848Z,999.15
2019-01-13T03:06:05.964Z,999.14
2019-01-13T03:07:10.282Z,999.15
2019-01-13T03:08:14.480Z,999.17
2019-01-13T03:09:18.696Z,999.21
2019-01-13T03:10:22.893Z,999.25
2019-01-13T03:11:27.123Z,999.23
2019-01-13T03:12:31.259Z,999.23
2019-01-13T03:13:35.564Z,999.24
2019-01-13T03:14:39.754Z,999.23
2019-01-13T03:15:43.974Z,999.25
2019-01-13T03:16:48.221Z,999.25
2019-01-13T03:17:52.335Z,999.25
2019-01-13T03:18:56.586Z,999.29
2019-01-13T03:20:00.831Z,999.23
2019-01-13T03:21:04.980Z,999.17
2019-01-13T03:22:09.297Z,999.14
2019-01-13T03:23:13.505Z,999.12
2019-01-13T03:24:17.749Z,999.12
2019-01-13T03:25:21.968Z,999.09
2019-01-13T03:26:26.184Z,999.06
2019-01-13T03:27:30.461Z,999.04
2019-01-13T03:28:34.639Z,999.05
2019-01-13T03:29:38.768Z,999.02
2019-01-13T03:30:43.074Z,998.98
2019-01-13T03:31:47.273Z,998.95
2019-01-13T03:32:51.472Z,998.93
2019-01-13T03:33:55.689Z,998.87
2019-01-13T03:34:59.904Z,998.89
2019-01-13T03:36:04.020Z,998.82
2019-01-13T03:37:08.328Z,998.82
2019-01-13T03:38:12.420Z,998.81
2019-01-13T03:39:16.694Z,998.85
2019-01-13T03:40:20.954Z,998.86
2019-01-13T03:41:25.163Z,998.86
2019-01-13T03:42:29.392Z,998.89
2019-01-13T03:43:33.498Z,998.85
2019-01-13T03:44:37.778Z,998.88
2019-01-13T03:45:41.980Z,998.90
2019-01-13T03:46:46.224Z,998.87
2019-01-13T03:47:50.502Z,998.85
2019-01-13T03:48:54.738Z,998.80
2019-01-13T03:49:58.820Z,998.81
2019-01-13T03:51:03.105Z,998.80
2019-01-13T03:52:07.372Z,998.76
2019-01-13T03:53:11.553Z,998.73
2019-01-13T03:54:15.736Z,998.70
2019-01-13T03:55:19.944Z,998.68
2019-01-13T03:56:24.190Z,998.69
2019-01-13T03:57:28.414Z,998.67
2019-01-13T03:58:32.558Z,998.65
2019-01-13T03:59:37.718Z,998.66
2019-01-13T04:00:41.545Z,998.65
2019-01-13T04:01:45.799Z,998.63
2019-01-13T04:02:50.060Z,998.63
2019-01-13T04:03:54.179Z,998.62
2019-01-13T04:04:58.463Z,998.60
2019-01-13T04:06:02.673Z,998.57
2019-01-13T04:07:06.892Z,998.59
2019-01-13T04:08:11.056Z,998.60
2019-01-13T04:09:15.281Z,998.62
2019-01-13T04:10:19.477Z,998.60
2019-01-13T04:11:23.702Z,998.58
2019-01-13T04:12:27.962Z,998.59
2019-01-13T04:13:32.165Z,998.59
2019-01-13T04:14:36.357Z,998.59
2019-01-13T04:15:40.585Z,998.57
2019-01-13T04:16:44.823Z,998.57
2019-01-13T04:17:48.962Z,998.55
2019-01-13T04:18:53.218Z,998.57
2019-01-13T04:19:57.422Z,998.57
2019-01-13T04:21:01.612Z,998.54
2019-01-13T04:22:05.751Z,998.51
2019-01-13T04:23:09.917Z,998.52
2019-01-13T04:24:14.093Z,998.52
2019-01-13T04:25:18.364Z,998.47
2019-01-13T04:26:22.606Z,998.47
2019-01-13T04:27:26.832Z,998.43
2019-01-13T04:28:31.086Z,998.42
2019-01-13T04:29:35.337Z,998.42
2019-01-13T04:30:39.502Z,998.34
2019-01-13T04:31:43.729Z,998.35
2019-01-13T04:32:47.949Z,998.29
2019-01-13T04:33:52.163Z,998.28
2019-01-13T04:35:03.404Z,998.26
2019-01-13T04:36:06.139Z,998.23
2019-01-13T04:37:10.276Z,998.25
2019-01-13T04:38:14.512Z,998.27
2019-01-13T04:39:18.692Z,998.25
2019-01-13T04:40:22.871Z,998.25
2019-01-13T04:41:27.107Z,998.23
2019-01-13T04:42:31.317Z,998.20
2019-01-13T04:43:35.559Z,998.21
2019-01-13T04:44:39.714Z,998.19
2019-01-13T04:45:43.943Z,998.19
2019-01-13T04:46:48.153Z,998.22
2019-01-13T04:47:52.256Z,998.20
2019-01-13T04:48:56.557Z,998.16
2019-01-13T04:50:00.782Z,998.17
2019-01-13T04:51:04.904Z,998.17
2019-01-13T04:52:09.097Z,998.13
2019-01-13T04:53:13.332Z,998.10
2019-01-13T04:54:17.556Z,998.09
2019-01-13T04:55:21.722Z,998.04
2019-01-13T04:56:25.837Z,998.06
2019-01-13T04:57:30.074Z,998.05
2019-01-13T04:58:34.177Z,998.06
2019-01-13T04:59:38.384Z,998.06
2019-01-13T05:00:42.655Z,998.04
2019-01-13T05:01:46.772Z,998.00
2019-01-13T05:02:51.028Z,998.00
2019-01-13T05:03:55.239Z,997.96
2019-01-13T05:04:59.456Z,997.97
2019-01-13T05:06:03.666Z,997.97
2019-01-13T05:07:07.871Z,997.95
2019-01-13T05:08:12.066Z,997.97
2019-01-13T05:09:16.260Z,997.96
2019-01-13T05:10:20.373Z,997.95
2019-01-13T05:11:24.636Z,997.96
2019-01-13T05:12:28.860Z,997.89
2019-01-13T05:13:33.058Z,997.87
2019-01-13T05:14:37.294Z,997.88
2019-01-13T05:15:41.430Z,997.84
2019-01-13T05:16:45.577Z,997.90
2019-01-13T05:17:49.876Z,997.89
2019-01-13T05:18:54.045Z,997.93
2019-01-13T05:19:58.274Z,997.88
2019-01-13T05:21:02.487Z,997.90
2019-01-13T05:22:06.709Z,997.87
2019-01-13T05:23:10.852Z,997.86
2019-01-13T05:24:15.119Z,997.81
2019-01-13T05:25:19.255Z,997.79
2019-01-13T05:26:23.511Z,997.80
2019-01-13T05:27:27.624Z,997.79
2019-01-13T05:28:31.894Z,997.77
2019-01-13T05:29:36.143Z,997.84
2019-01-13T05:30:40.234Z,997.81
2019-01-13T05:31:44.507Z,997.85
2019-01-13T05:32:48.596Z,997.88
2019-01-13T05:33:52.823Z,997.88
2019-01-13T05:34:57.056Z,997.86
2019-01-13T05:36:01.259Z,997.89
2019-01-13T05:37:05.455Z,997.90
2019-01-13T05:38:09.656Z,997.88
2019-01-13T05:39:13.891Z,997.85
2019-01-13T05:40:18.107Z,997.88
2019-01-13T05:41:22.282Z,997.88
2019-01-13T05:42:26.493Z,997.87
2019-01-13T05:43:30.687Z,997.80
2019-01-13T05:44:34.895Z,997.79
2019-01-13T05:45:39.029Z,997.70
2019-01-13T05:46:43.273Z,997.73
2019-01-13T05:47:47.491Z,997.73
2019-01-13T05:48:51.655Z,997.75
2019-01-13T05:49:56.700Z,997.72
2019-01-13T05:51:00.511Z,997.68
2019-01-13T05:52:04.751Z,997.66
2019-01-13T05:53:08.970Z,997.63
2019-01-13T05:54:13.066Z,997.64
2019-01-13T05:55:18.123Z,997.62
2019-01-13T05:56:22.040Z,997.61
2019-01-13T05:57:26.124Z,997.55
2019-01-13T05:58:30.401Z,997.50
2019-01-13T05:59:34.517Z,997.47
2019-01-13T06:00:38.712Z,997.41
2019-01-13T06:01:49.143Z,997.49
2019-01-13T06:02:47.203Z,997.47
2019-01-13T06:03:51.327Z,997.39
2019-01-13T06:04:55.588Z,997.36
2019-01-13T06:05:59.727Z,997.41
2019-01-13T06:07:03.968Z,997.37
2019-01-13T06:08:08.071Z,997.34
2019-01-13T06:09:12.265Z,997.32
2019-01-13T06:10:16.567Z,997.23
2019-01-13T06:11:20.718Z,997.19
2019-01-13T06:12:24.985Z,997.16
2019-01-13T06:13:30.023Z,997.14
2019-01-13T06:14:33.909Z,997.12
2019-01-13T06:15:38.110Z,997.03
2019-01-13T06:16:42.378Z,997.06
2019-01-13T06:17:46.610Z,997.05
2019-01-13T06:18:50.800Z,997.01
2019-01-13T06:19:54.999Z,996.98
2019-01-13T06:20:59.210Z,996.94
2019-01-13T06:22:03.435Z,996.96
2019-01-13T06:23:07.609Z,996.94
2019-01-13T06:24:11.735Z,996.88
2019-01-13T06:25:16.003Z,996.89
2019-01-13T06:26:20.224Z,996.90
2019-01-13T06:27:24.407Z,996.92
2019-01-13T06:28:28.494Z,996.88
2019-01-13T06:29:32.665Z,996.86
2019-01-13T06:30:36.910Z,996.87
2019-01-13T06:31:41.025Z,996.82
2019-01-13T06:32:45.263Z,996.82
2019-01-13T06:33:49.478Z,996.79
2019-01-13T06:34:53.667Z,996.80
2019-01-13T06:35:57.891Z,996.75
2019-01-13T06:37:02.096Z,996.80
2019-01-13T06:38:06.395Z,996.76
2019-01-13T06:39:10.419Z,996.75
2019-01-13T06:40:14.716Z,996.74
2019-01-13T06:41:18.774Z,996.76
2019-01-13T06:42:23.058Z,996.78
2019-01-13T06:43:27.282Z,996.76
2019-01-13T06:44:31.382Z,996.72
2019-01-13T06:45:35.560Z,996.71
2019-01-13T06:46:39.719Z,996.68
2019-01-13T06:47:44.004Z,996.69
2019-01-13T06:48:48.176Z,996.72
2019-01-13T06:49:52.360Z,996.72
2019-01-13T06:50:56.589Z,996.68
2019-01-13T06:52:00.921Z,996.64
2019-01-13T06:53:04.996Z,996.57
2019-01-13T06:54:09.193Z,996.60
2019-01-13T06:55:13.465Z,996.56
2019-01-13T06:56:17.674Z,996.56
2019-01-13T06:57:21.841Z,996.50
2019-01-13T06:58:26.099Z,996.47
2019-01-13T06:59:30.306Z,996.50
2019-01-13T07:00:35.354Z,996.54
2019-01-13T07:01:39.253Z,996.51
2019-01-13T07:02:43.450Z,996.52
2019-01-13T07:03:47.642Z,996.54
2019-01-13T07:04:51.847Z,996.58
2019-01-13T07:05:56.053Z,996.55
2019-01-13T07:07:00.264Z,996.54
2019-01-13T07:08:04.423Z,996.61
2019-01-13T07:09:08.672Z,996.57
2019-01-13T07:10:12.855Z,996.54
2019-01-13T07:11:16.961Z,996.54
2019-01-13T07:12:21.190Z,996.52
2019-01-13T07:13:25.441Z,996.46
2019-01-13T07:14:29.543Z,996.49
2019-01-13T07:15:33.825Z,996.43
2019-01-13T07:16:37.905Z,996.41
2019-01-13T07:17:42.202Z,996.42
2019-01-13T07:18:46.424Z,996.42
2019-01-13T07:19:50.644Z,996.42
2019-01-13T07:20:55.680Z,996.42
2019-01-13T07:21:59.463Z,996.38
2019-01-13T07:23:03.634Z,996.38
2019-01-13T07:24:07.782Z,996.36
2019-01-13T07:25:12.042Z,996.35
2019-01-13T07:26:16.154Z,996.36
2019-01-13T07:27:20.436Z,996.42
2019-01-13T07:28:24.696Z,996.41
2019-01-13T07:29:28.884Z,996.43
2019-01-13T07:30:33.019Z,996.38
2019-01-13T07:31:37.263Z,996.33
2019-01-13T07:32:41.477Z,996.30
2019-01-13T07:33:45.686Z,996.28
2019-01-13T07:34:49.904Z,996.25
2019-01-13T07:35:54.084Z,996.23
2019-01-13T07:36:58.296Z,996.22
2019-01-13T07:38:02.507Z,996.22
2019-01-13T07:39:06.647Z,996.21
2019-01-13T07:40:10.915Z,996.24
2019-01-13T07:41:15.125Z,996.21
2019-01-13T07:42:19.262Z,996.18
2019-01-13T07:43:23.528Z,996.17
2019-01-13T07:44:27.733Z,996.12
2019-01-13T07:45:31.868Z,996.02
2019-01-13T07:46:36.146Z,995.91
2019-01-13T07:47:40.367Z,995.83
2019-01-13T07:48:44.622Z,995.82
2019-01-13T07:49:48.837Z,995.86
2019-01-13T07:50:52.949Z,995.91
2019-01-13T07:51:57.131Z,995.93
2019-01-13T07:53:01.324Z,995.89
2019-01-13T07:54:05.554Z,995.88
2019-01-13T07:55:09.812Z,995.89
2019-01-13T07:56:14.016Z,995.84
2019-01-13T07:57:18.195Z,995.84
2019-01-13T07:58:22.347Z,995.77
2019-01-13T07:59:26.647Z,995.76
2019-01-13T08:00:30.833Z,995.72
2019-01-13T08:01:35.037Z,995.70
2019-01-13T08:02:39.264Z,995.70
2019-01-13T08:03:43.399Z,995.70
2019-01-13T08:04:47.709Z,995.69
2019-01-13T08:05:51.894Z,995.63
2019-01-13T08:06:56.004Z,995.66
2019-01-13T08:08:00.203Z,995.65
2019-01-13T08:09:04.472Z,995.62
2019-01-13T08:10:08.720Z,995.55
2019-01-13T08:11:12.866Z,995.57
2019-01-13T08:12:17.011Z,995.52
2019-01-13T08:13:21.146Z,995.48
2019-01-13T08:14:25.421Z,995.43
2019-01-13T08:15:29.675Z,995.39
2019-01-13T08:16:33.832Z,995.36
2019-01-13T08:17:37.974Z,995.33
2019-01-13T08:18:42.220Z,995.30
2019-01-13T08:19:46.414Z,995.25
2019-01-13T08:20:50.627Z,995.32
2019-01-13T08:21:54.752Z,995.29
2019-01-13T08:22:58.937Z,995.29
2019-01-13T08:24:03.123Z,995.25
2019-01-13T08:25:07.553Z,995.24
2019-01-13T08:26:11.681Z,995.20
2019-01-13T08:27:15.840Z,995.16
2019-01-13T08:28:19.965Z,995.17
2019-01-13T08:29:24.257Z,995.16
2019-01-13T08:30:28.471Z,995.14
2019-01-13T08:31:33.432Z,995.16
2019-01-13T08:32:37.300Z,995.10
2019-01-13T08:33:41.511Z,995.06
2019-01-13T08:34:45.782Z,995.05
2019-01-13T08:35:50.043Z,995.03
2019-01-13T08:36:54.178Z,995.00
2019-01-13T08:37:58.474Z,995.02
2019-01-13T08:39:02.667Z,995.01
2019-01-13T08:40:06.897Z,994.98
2019-01-13T08:41:11.120Z,994.93
2019-01-13T08:42:16.148Z,994.87
2019-01-13T08:43:20.014Z,994.83
2019-01-13T08:44:24.247Z,994.82
2019-01-13T08:45:28.478Z,994.79
2019-01-13T08:46:32.587Z,994.76
2019-01-13T08:47:36.782Z,994.72
2019-01-13T08:48:40.999Z,994.69
2019-01-13T08:49:45.253Z,994.68
2019-01-13T08:50:49.473Z,994.64
2019-01-13T08:51:53.706Z,994.58
2019-01-13T08:52:57.820Z,994.53
2019-01-13T08:54:02.109Z,994.49
2019-01-13T08:55:06.299Z,994.45
2019-01-13T08:56:10.589Z,994.42
2019-01-13T08:57:14.754Z,994.39
2019-01-13T08:58:18.939Z,994.37
2019-01-13T08:59:23.115Z,994.40
2019-01-13T09:00:27.385Z,994.36
2019-01-13T09:01:31.525Z,994.32
2019-01-13T09:02:35.817Z,994.27
2019-01-13T09:03:39.888Z,994.25
2019-01-13T09:04:44.069Z,994.20
2019-01-13T09:05:48.312Z,994.16
2019-01-13T09:06:52.423Z,994.11
2019-01-13T09:07:56.605Z,994.06
2019-01-13T09:09:00.889Z,994.02
2019-01-13T09:10:05.004Z,993.99
2019-01-13T09:11:09.169Z,993.96
2019-01-13T09:12:13.424Z,993.91
2019-01-13T09:13:17.655Z,993.89
2019-01-13T09:14:21.865Z,993.87
2019-01-13T09:15:25.968Z,993.81
2019-01-13T09:16:30.280Z,993.78
2019-01-13T09:17:34.381Z,993.76
2019-01-13T09:18:38.664Z,993.71
2019-01-13T09:19:42.893Z,993.69
2019-01-13T09:20:47.086Z,993.67
2019-01-13T09:21:51.342Z,993.60
2019-01-13T09:22:55.556Z,993.59
2019-01-13T09:23:59.788Z,993.57
2019-01-13T09:25:03.989Z,993.54
2019-01-13T09:26:08.208Z,993.51
2019-01-13T09:27:12.366Z,993.44
2019-01-13T09:28:16.653Z,993.40
2019-01-13T09:29:20.872Z,993.38
2019-01-13T09:30:25.107Z,993.34
2019-01-13T09:31:29.339Z,993.36
2019-01-13T09:32:39.400Z,993.28
2019-01-13T09:33:37.574Z,993.25
2019-01-13T09:34:41.862Z,993.23
2019-01-13T09:35:45.988Z,993.22
2019-01-13T09:36:50.289Z,993.19
2019-01-13T09:37:54.428Z,993.18
2019-01-13T09:38:58.709Z,993.13
2019-01-13T09:40:02.838Z,993.10
2019-01-13T09:41:07.096Z,993.06
2019-01-13T09:42:11.253Z,993.05
2019-01-13T09:43:15.523Z,993.03
2019-01-13T09:44:19.741Z,992.98
2019-01-13T09:45:23.793Z,992.95
2019-01-13T09:46:28.053Z,992.89
2019-01-13T09:47:32.310Z,992.88
2019-01-13T09:48:37.314Z,992.88
2019-01-13T09:49:41.142Z,992.85
2019-01-13T09:50:45.335Z,992.78
2019-01-13T09:51:49.682Z,992.76
2019-01-13T09:52:53.867Z,992.69
2019-01-13T09:53:57.994Z,992.68
2019-01-13T09:55:02.255Z,992.65
2019-01-13T09:56:06.371Z,992.61
2019-01-13T09:57:10.671Z,992.54
2019-01-13T09:58:14.840Z,992.55
2019-01-13T09:59:19.149Z,992.54
2019-01-13T10:00:23.172Z,992.52
2019-01-13T10:01:27.501Z,992.49
2019-01-13T10:02:31.614Z,992.43
2019-01-13T10:03:35.902Z,992.41
2019-01-13T10:04:40.101Z,992.39
2019-01-13T10:05:44.239Z,992.38
2019-01-13T10:06:48.499Z,992.34
2019-01-13T10:07:52.696Z,992.26
2019-01-13T10:08:56.950Z,992.23
2019-01-13T10:10:01.189Z,992.14
2019-01-13T10:11:05.410Z,992.11
2019-01-13T10:12:09.538Z,992.08
2019-01-13T10:13:13.816Z,992.07
2019-01-13T10:14:17.985Z,992.01
2019-01-13T10:15:22.224Z,991.97
2019-01-13T10:16:26.350Z,991.96
2019-01-13T10:17:30.686Z,991.93
2019-01-13T10:18:34.888Z,991.88
2019-01-13T10:19:39.027Z,991.86
2019-01-13T10:20:43.303Z,991.79
2019-01-13T10:21:47.359Z,991.75
2019-01-13T10:22:51.674Z,991.69
2019-01-13T10:23:55.923Z,991.66
2019-01-13T10:25:00.168Z,991.63
2019-01-13T10:26:04.405Z,991.58
2019-01-13T10:27:08.632Z,991.58
2019-01-13T10:28:12.837Z,991.53
2019-01-13T10:29:17.004Z,991.52
2019-01-13T10:30:21.256Z,991.51
2019-01-13T10:31:25.477Z,991.48
2019-01-13T10:32:29.725Z,991.46
2019-01-13T10:33:33.903Z,991.46
2019-01-13T10:34:38.158Z,991.36
2019-01-13T10:35:42.390Z,991.39
2019-01-13T10:36:46.634Z,991.33
2019-01-13T10:37:51.605Z,991.33
2019-01-13T10:38:55.114Z,991.28
2019-01-13T10:39:59.331Z,991.25
2019-01-13T10:41:03.492Z,991.24
2019-01-13T10:42:07.675Z,991.24
2019-01-13T10:43:11.982Z,991.16
2019-01-13T10:44:16.217Z,991.16
2019-01-13T10:45:20.387Z,991.09
2019-01-13T10:46:24.598Z,991.06
2019-01-13T10:47:28.682Z,991.03
2019-01-13T10:48:32.958Z,990.99
2019-01-13T10:49:37.226Z,991.02
2019-01-13T10:50:41.348Z,990.99
2019-01-13T10:51:45.535Z,990.99
2019-01-13T10:52:49.734Z,990.95
2019-01-13T10:53:54.024Z,990.90
2019-01-13T10:54:58.160Z,990.85
2019-01-13T10:56:02.414Z,990.86
2019-01-13T10:57:06.641Z,990.83
2019-01-13T10:58:10.873Z,990.78
2019-01-13T10:59:15.116Z,990.76
2019-01-13T11:00:20.186Z,990.70
2019-01-13T11:01:23.966Z,990.68
2019-01-13T11:02:31.221Z,990.62
2019-01-13T11:03:34.565Z,990.68
2019-01-13T11:04:38.742Z,990.64
2019-01-13T11:05:43.007Z,990.59
2019-01-13T11:06:47.211Z,990.57
2019-01-13T11:07:51.444Z,990.57
2019-01-13T11:08:55.678Z,990.54
2019-01-13T11:09:59.873Z,990.54
2019-01-13T11:11:04.101Z,990.49
2019-01-13T11:12:08.314Z,990.46
2019-01-13T11:13:12.542Z,990.45
2019-01-13T11:14:16.665Z,990.43
2019-01-13T11:15:21.842Z,990.39
2019-01-13T11:16:25.004Z,990.37
2019-01-13T11:17:29.173Z,990.36
2019-01-13T11:18:33.523Z,990.35
2019-01-13T11:19:37.611Z,990.36
2019-01-13T11:20:41.963Z,990.37
2019-01-13T11:21:46.167Z,990.32
2019-01-13T11:22:50.427Z,990.30
2019-01-13T11:23:54.596Z,990.32
2019-01-13T11:24:58.783Z,990.32
2019-01-13T11:26:03.031Z,990.29
2019-01-13T11:27:07.157Z,990.26
2019-01-13T11:28:11.455Z,990.18
2019-01-13T11:29:15.659Z,990.11
2019-01-13T11:30:19.902Z,990.10
2019-01-13T11:31:24.091Z,990.05
2019-01-13T11:32:28.229Z,990.01
2019-01-13T11:33:32.502Z,989.96
2019-01-13T11:34:36.736Z,989.92
2019-01-13T11:35:40.967Z,989.88
2019-01-13T11:36:45.177Z,989.86
2019-01-13T11:37:49.418Z,989.84
2019-01-13T11:38:53.660Z,989.79
2019-01-13T11:39:57.917Z,989.78
2019-01-13T11:41:02.924Z,989.74
2019-01-13T11:42:06.739Z,989.72
2019-01-13T11:43:11.352Z,989.73
2019-01-13T11:44:15.202Z,989.69
2019-01-13T11:45:19.420Z,989.63
2019-01-13T11:46:23.646Z,989.62
2019-01-13T11:47:27.894Z,989.55
2019-01-13T11:48:32.105Z,989.52
2019-01-13T11:49:36.284Z,989.52
2019-01-13T11:50:40.547Z,989.48
2019-01-13T11:51:44.688Z,989.44
2019-01-13T11:52:48.970Z,989.40
2019-01-13T11:53:53.122Z,989.38
2019-01-13T11:54:57.457Z,989.34
2019-01-13T11:56:01.667Z,989.30
2019-01-13T11:57:05.925Z,989.28
2019-01-13T11:58:10.175Z,989.24
2019-01-13T11:59:14.402Z,989.21
2019-01-13T12:00:18.595Z,989.17
2019-01-13T12:01:22.860Z,989.11
2019-01-13T12:02:32.530Z,989.07
2019-01-13T12:03:31.336Z,989.02
2019-01-13T12:04:35.569Z,988.93
2019-01-13T12:05:39.856Z,988.92
2019-01-13T12:06:43.995Z,988.89
2019-01-13T12:07:48.309Z,988.86
2019-01-13T12:08:53.310Z,988.86
2019-01-13T12:09:57.129Z,988.82
2019-01-13T12:11:01.349Z,988.85
2019-01-13T12:12:05.603Z,988.85
2019-01-13T12:13:09.800Z,988.81
2019-01-13T12:14:14.026Z,988.81
2019-01-13T12:15:18.309Z,988.81
2019-01-13T12:16:22.439Z,988.81
2019-01-13T12:17:26.584Z,988.79
2019-01-13T12:18:30.865Z,988.79
2019-01-13T12:19:35.070Z,988.76
2019-01-13T12:20:39.326Z,988.72
2019-01-13T12:21:43.542Z,988.72
2019-01-13T12:22:47.728Z,988.72
2019-01-13T12:23:52.023Z,988.68
2019-01-13T12:24:56.172Z,988.70
2019-01-13T12:26:00.465Z,988.64
2019-01-13T12:27:04.687Z,988.61
2019-01-13T12:28:08.947Z,988.57
2019-01-13T12:29:13.072Z,988.55
2019-01-13T12:30:17.360Z,988.52
2019-01-13T12:31:21.617Z,988.55
2019-01-13T12:32:25.870Z,988.54
2019-01-13T12:33:30.126Z,988.53
2019-01-13T12:34:34.424Z,988.46
2019-01-13T12:35:38.548Z,988.44
2019-01-13T12:36:42.842Z,988.38
2019-01-13T12:37:47.069Z,988.29
2019-01-13T12:38:51.265Z,988.28
2019-01-13T12:39:55.513Z,988.21
2019-01-13T12:41:00.223Z,988.19
2019-01-13T12:42:06.880Z,988.17
2019-01-13T12:43:10.071Z,988.21
2019-01-13T12:44:14.301Z,988.27
2019-01-13T12:45:18.627Z,988.26
2019-01-13T12:46:23.651Z,988.28
2019-01-13T12:47:27.552Z,988.24
2019-01-13T12:48:31.777Z,988.29
2019-01-13T12:49:35.903Z,988.24
2019-01-13T12:50:40.224Z,988.28
2019-01-13T12:51:44.463Z,988.25
2019-01-13T12:52:48.746Z,988.20
2019-01-13T12:53:52.971Z,988.20
2019-01-13T12:54:57.205Z,988.16
2019-01-13T12:56:01.363Z,988.07
2019-01-13T12:57:05.544Z,988.09
2019-01-13T12:58:09.843Z,988.08
2019-01-13T12:59:14.076Z,988.04
2019-01-13T13:00:18.299Z,988.03
2019-01-13T13:01:22.527Z,988.03
2019-01-13T13:02:26.655Z,987.96
2019-01-13T13:03:31.822Z,987.98
2019-01-13T13:04:35.166Z,987.92
2019-01-13T13:05:39.432Z,987.91
2019-01-13T13:06:43.665Z,987.90
2019-01-13T13:07:47.908Z,987.85
2019-01-13T13:08:52.150Z,987.86
2019-01-13T13:09:56.425Z,987.80
2019-01-13T13:11:00.666Z,987.80
2019-01-13T13:12:04.933Z,987.76
2019-01-13T13:13:09.045Z,987.72
2019-01-13T13:14:13.294Z,987.76
2019-01-13T13:15:17.538Z,987.73
2019-01-13T13:16:21.773Z,987.70
2019-01-13T13:17:25.973Z,987.75
2019-01-13T13:18:30.106Z,987.69
2019-01-13T13:19:34.333Z,987.62
2019-01-13T13:20:38.671Z,987.60
2019-01-13T13:21:42.888Z,987.64